sensor_id;sensor_type;location;lat;lon;timestamp;temperature;humidity
65396;HTU21D;52004;45.136;39.010;2022-07-15T00:00:38;20.50;63.16
65396;HTU21D;52004;45.136;39.010;2022-07-15T00:03:04;20.43;63.21
65396;HTU21D;52004;45.136;39.010;2022-07-15T00:05:30;20.34;63.30
65396;HTU21D;52004;45.136;39.010;2022-07-15T00:07:57;20.28;63.40
65396;HTU21D;52004;45.136;39.010;2022-07-15T00:10:27;20.21;63.47
65396;HTU21D;52004;45.136;39.010;2022-07-15T00:12:54;20.15;63.50
65396;HTU21D;52004;45.136;39.010;2022-07-15T00:15:22;20.10;63.56
65396;HTU21D;52004;45.136;39.010;2022-07-15T00:17:48;20.05;63.64
65396;HTU21D;52004;45.136;39.010;2022-07-15T00:20:14;20.01;63.69
65396;HTU21D;52004;45.136;39.010;2022-07-15T00:22:41;19.97;63.69
65396;HTU21D;52004;45.136;39.010;2022-07-15T00:25:08;19.90;63.74
65396;HTU21D;52004;45.136;39.010;2022-07-15T00:28:03;19.86;63.82
65396;HTU21D;52004;45.136;39.010;2022-07-15T00:30:33;19.81;63.89
65396;HTU21D;52004;45.136;39.010;2022-07-15T00:32:59;19.79;63.93
65396;HTU21D;52004;45.136;39.010;2022-07-15T00:35:28;19.75;63.95
65396;HTU21D;52004;45.136;39.010;2022-07-15T00:37:54;19.72;63.98
65396;HTU21D;52004;45.136;39.010;2022-07-15T00:40:20;19.70;64.00
65396;HTU21D;52004;45.136;39.010;2022-07-15T00:42:46;19.66;64.01
65396;HTU21D;52004;45.136;39.010;2022-07-15T00:45:17;19.61;64.12
65396;HTU21D;52004;45.136;39.010;2022-07-15T00:47:47;19.58;64.17
65396;HTU21D;52004;45.136;39.010;2022-07-15T00:50:14;19.55;64.20
65396;HTU21D;52004;45.136;39.010;2022-07-15T00:52:41;19.54;64.23
65396;HTU21D;52004;45.136;39.010;2022-07-15T00:55:08;19.52;64.24
65396;HTU21D;52004;45.136;39.010;2022-07-15T00:57:35;19.51;64.24
65396;HTU21D;52004;45.136;39.010;2022-07-15T01:00:03;19.48;64.27
65396;HTU21D;52004;45.136;39.010;2022-07-15T01:02:30;19.44;64.30
65396;HTU21D;52004;45.136;39.010;2022-07-15T01:04:56;19.40;64.37
65396;HTU21D;52004;45.136;39.010;2022-07-15T01:07:25;19.36;64.45
65396;HTU21D;52004;45.136;39.010;2022-07-15T01:09:51;19.36;64.44
65396;HTU21D;52004;45.136;39.010;2022-07-15T01:12:16;19.32;64.47
65396;HTU21D;52004;45.136;39.010;2022-07-15T01:14:42;19.30;64.49
65396;HTU21D;52004;45.136;39.010;2022-07-15T01:17:10;19.29;64.51
65396;HTU21D;52004;45.136;39.010;2022-07-15T01:19:37;19.25;64.53
65396;HTU21D;52004;45.136;39.010;2022-07-15T01:22:04;19.24;64.58
65396;HTU21D;52004;45.136;39.010;2022-07-15T01:24:30;19.23;64.58
65396;HTU21D;52004;45.136;39.010;2022-07-15T01:27:11;19.21;64.60
65396;HTU21D;52004;45.136;39.010;2022-07-15T01:29:37;19.17;64.66
65396;HTU21D;52004;45.136;39.010;2022-07-15T01:32:03;19.16;64.66
65396;HTU21D;52004;45.136;39.010;2022-07-15T01:34:29;19.16;64.66
65396;HTU21D;52004;45.136;39.010;2022-07-15T01:36:56;19.13;64.68
65396;HTU21D;52004;45.136;39.010;2022-07-15T01:39:22;19.11;64.71
65396;HTU21D;52004;45.136;39.010;2022-07-15T01:41:48;19.09;64.79
65396;HTU21D;52004;45.136;39.010;2022-07-15T01:44:17;19.09;64.82
65396;HTU21D;52004;45.136;39.010;2022-07-15T01:46:44;19.07;64.83
65396;HTU21D;52004;45.136;39.010;2022-07-15T01:49:10;19.06;64.85
65396;HTU21D;52004;45.136;39.010;2022-07-15T01:52:02;19.05;64.88
65396;HTU21D;52004;45.136;39.010;2022-07-15T01:54:29;19.03;64.89
65396;HTU21D;52004;45.136;39.010;2022-07-15T01:56:58;19.03;64.91
65396;HTU21D;52004;45.136;39.010;2022-07-15T01:59:26;19.01;64.93
65396;HTU21D;52004;45.136;39.010;2022-07-15T02:01:55;19.02;64.95
65396;HTU21D;52004;45.136;39.010;2022-07-15T02:04:21;19.01;64.97
65396;HTU21D;52004;45.136;39.010;2022-07-15T02:06:48;19.01;64.98
65396;HTU21D;52004;45.136;39.010;2022-07-15T02:09:16;19.02;65.04
65396;HTU21D;52004;45.136;39.010;2022-07-15T02:11:44;19.02;65.05
65396;HTU21D;52004;45.136;39.010;2022-07-15T02:14:10;19.00;65.09
65396;HTU21D;52004;45.136;39.010;2022-07-15T02:16:38;19.00;65.15
65396;HTU21D;52004;45.136;39.010;2022-07-15T02:19:08;19.02;65.17
65396;HTU21D;52004;45.136;39.010;2022-07-15T02:21:35;19.03;65.20
65396;HTU21D;52004;45.136;39.010;2022-07-15T02:24:01;19.07;65.21
65396;HTU21D;52004;45.136;39.010;2022-07-15T02:26:27;19.07;65.24
65396;HTU21D;52004;45.136;39.010;2022-07-15T02:28:56;19.10;65.28
65396;HTU21D;52004;45.136;39.010;2022-07-15T02:31:24;19.12;65.28
65396;HTU21D;52004;45.136;39.010;2022-07-15T02:33:50;19.13;65.30
65396;HTU21D;52004;45.136;39.010;2022-07-15T02:36:17;19.15;65.37
65396;HTU21D;52004;45.136;39.010;2022-07-15T02:38:45;19.20;65.41
65396;HTU21D;52004;45.136;39.010;2022-07-15T02:41:12;19.22;65.40
65396;HTU21D;52004;45.136;39.010;2022-07-15T02:43:40;19.26;65.43
65396;HTU21D;52004;45.136;39.010;2022-07-15T02:46:09;19.30;65.43
65396;HTU21D;52004;45.136;39.010;2022-07-15T02:48:36;19.35;65.43
65396;HTU21D;52004;45.136;39.010;2022-07-15T02:51:03;19.40;65.47
65396;HTU21D;52004;45.136;39.010;2022-07-15T02:53:29;19.41;65.51
65396;HTU21D;52004;45.136;39.010;2022-07-15T02:55:59;19.44;65.54
65396;HTU21D;52004;45.136;39.010;2022-07-15T02:58:26;19.48;65.56
65396;HTU21D;52004;45.136;39.010;2022-07-15T03:00:52;19.53;65.55
65396;HTU21D;52004;45.136;39.010;2022-07-15T03:03:18;19.58;65.56
65396;HTU21D;52004;45.136;39.010;2022-07-15T03:05:45;19.62;65.56
65396;HTU21D;52004;45.136;39.010;2022-07-15T03:08:11;19.69;65.57
65396;HTU21D;52004;45.136;39.010;2022-07-15T03:10:39;19.74;65.56
65396;HTU21D;52004;45.136;39.010;2022-07-15T03:13:05;19.81;65.57
65396;HTU21D;52004;45.136;39.010;2022-07-15T03:15:31;19.88;65.57
65396;HTU21D;52004;45.136;39.010;2022-07-15T03:17:57;19.94;65.57
65396;HTU21D;52004;45.136;39.010;2022-07-15T03:20:25;20.00;65.56
65396;HTU21D;52004;45.136;39.010;2022-07-15T03:22:52;20.07;65.58
65396;HTU21D;52004;45.136;39.010;2022-07-15T03:25:18;20.14;65.59
65396;HTU21D;52004;45.136;39.010;2022-07-15T03:27:44;20.20;65.59
65396;HTU21D;52004;45.136;39.010;2022-07-15T03:30:12;20.27;65.57
65396;HTU21D;52004;45.136;39.010;2022-07-15T03:32:40;20.34;65.58
65396;HTU21D;52004;45.136;39.010;2022-07-15T03:35:06;20.42;65.59
65396;HTU21D;52004;45.136;39.010;2022-07-15T03:37:36;20.49;65.59
65396;HTU21D;52004;45.136;39.010;2022-07-15T03:40:03;20.57;65.57
65396;HTU21D;52004;45.136;39.010;2022-07-15T03:42:29;20.65;65.55
65396;HTU21D;52004;45.136;39.010;2022-07-15T03:44:55;20.73;65.53
65396;HTU21D;52004;45.136;39.010;2022-07-15T03:47:21;20.83;65.49
65396;HTU21D;52004;45.136;39.010;2022-07-15T03:49:47;20.90;65.49
65396;HTU21D;52004;45.136;39.010;2022-07-15T03:52:13;21.00;65.50
65396;HTU21D;52004;45.136;39.010;2022-07-15T03:54:39;21.07;65.49
65396;HTU21D;52004;45.136;39.010;2022-07-15T03:57:05;21.16;65.46
65396;HTU21D;52004;45.136;39.010;2022-07-15T03:59:31;21.25;65.41
65396;HTU21D;52004;45.136;39.010;2022-07-15T04:01:58;21.33;65.37
65396;HTU21D;52004;45.136;39.010;2022-07-15T04:04:23;21.42;65.32
65396;HTU21D;52004;45.136;39.010;2022-07-15T04:06:50;21.51;65.27
65396;HTU21D;52004;45.136;39.010;2022-07-15T04:09:16;21.58;65.24
65396;HTU21D;52004;45.136;39.010;2022-07-15T04:11:44;21.67;65.21
65396;HTU21D;52004;45.136;39.010;2022-07-15T04:14:11;21.76;65.19
65396;HTU21D;52004;45.136;39.010;2022-07-15T04:16:39;21.84;65.17
65396;HTU21D;52004;45.136;39.010;2022-07-15T04:19:17;21.95;65.16
65396;HTU21D;52004;45.136;39.010;2022-07-15T04:21:43;22.05;65.11
65396;HTU21D;52004;45.136;39.010;2022-07-15T04:24:09;22.13;65.09
65396;HTU21D;52004;45.136;39.010;2022-07-15T04:26:35;22.21;65.04
65396;HTU21D;52004;45.136;39.010;2022-07-15T04:29:01;22.29;65.04
65396;HTU21D;52004;45.136;39.010;2022-07-15T04:31:27;22.36;65.01
65396;HTU21D;52004;45.136;39.010;2022-07-15T04:34:04;22.44;65.00
65396;HTU21D;52004;45.136;39.010;2022-07-15T04:36:30;22.53;64.98
65396;HTU21D;52004;45.136;39.010;2022-07-15T04:38:56;22.60;64.93
65396;HTU21D;52004;45.136;39.010;2022-07-15T04:41:22;22.66;64.92
65396;HTU21D;52004;45.136;39.010;2022-07-15T04:43:48;22.73;64.94
65396;HTU21D;52004;45.136;39.010;2022-07-15T04:46:15;22.81;64.93
65396;HTU21D;52004;45.136;39.010;2022-07-15T04:48:43;22.90;64.95
65396;HTU21D;52004;45.136;39.010;2022-07-15T04:51:30;22.98;64.88
65396;HTU21D;52004;45.136;39.010;2022-07-15T04:53:56;23.07;64.85
65396;HTU21D;52004;45.136;39.010;2022-07-15T04:56:22;23.13;64.79
65396;HTU21D;52004;45.136;39.010;2022-07-15T04:58:56;23.18;64.72
65396;HTU21D;52004;45.136;39.010;2022-07-15T05:01:22;23.25;64.77
65396;HTU21D;52004;45.136;39.010;2022-07-15T05:03:48;23.30;64.76
65396;HTU21D;52004;45.136;39.010;2022-07-15T05:06:18;23.38;64.73
65396;HTU21D;52004;45.136;39.010;2022-07-15T05:08:44;23.44;64.76
65396;HTU21D;52004;45.136;39.010;2022-07-15T05:11:10;23.54;64.72
65396;HTU21D;52004;45.136;39.010;2022-07-15T05:13:36;23.60;64.65
65396;HTU21D;52004;45.136;39.010;2022-07-15T05:16:04;23.65;64.58
65396;HTU21D;52004;45.136;39.010;2022-07-15T05:18:30;23.70;64.56
65396;HTU21D;52004;45.136;39.010;2022-07-15T05:20:58;0.00;64.56
65396;HTU21D;52004;45.136;39.010;2022-07-15T05:23:27;0.00;64.57
65396;HTU21D;52004;45.136;39.010;2022-07-15T05:25:58;23.91;64.61
65396;HTU21D;52004;45.136;39.010;2022-07-15T05:28:24;24.00;64.53
65396;HTU21D;52004;45.136;39.010;2022-07-15T05:30:50;24.08;64.53
65396;HTU21D;52004;45.136;39.010;2022-07-15T05:33:17;24.16;64.43
65396;HTU21D;52004;45.136;39.010;2022-07-15T05:35:43;24.24;64.47
65396;HTU21D;52004;45.136;39.010;2022-07-15T05:38:11;24.32;64.47
65396;HTU21D;52004;45.136;39.010;2022-07-15T05:40:37;24.42;64.44
65396;HTU21D;52004;45.136;39.010;2022-07-15T05:43:03;24.51;64.43
65396;HTU21D;52004;45.136;39.010;2022-07-15T05:45:33;24.61;64.37
65396;HTU21D;52004;45.136;39.010;2022-07-15T05:48:04;24.70;64.32
65396;HTU21D;52004;45.136;39.010;2022-07-15T05:50:35;24.78;64.31
65396;HTU21D;52004;45.136;39.010;2022-07-15T05:53:01;24.88;64.32
65396;HTU21D;52004;45.136;39.010;2022-07-15T05:55:28;24.95;64.21
65396;HTU21D;52004;45.136;39.010;2022-07-15T05:57:55;25.01;64.15
65396;HTU21D;52004;45.136;39.010;2022-07-15T06:00:25;25.06;64.13
65396;HTU21D;52004;45.136;39.010;2022-07-15T06:02:51;25.13;64.19
65396;HTU21D;52004;45.136;39.010;2022-07-15T06:05:21;25.19;64.17
65396;HTU21D;52004;45.136;39.010;2022-07-15T06:07:51;25.28;64.12
65396;HTU21D;52004;45.136;39.010;2022-07-15T06:10:22;25.32;63.98
65396;HTU21D;52004;45.136;39.010;2022-07-15T06:12:48;25.34;64.01
65396;HTU21D;52004;45.136;39.010;2022-07-15T06:15:15;25.42;63.99
65396;HTU21D;52004;45.136;39.010;2022-07-15T06:17:42;25.45;63.89
65396;HTU21D;52004;45.136;39.010;2022-07-15T06:20:09;25.50;63.90
65396;HTU21D;52004;45.136;39.010;2022-07-15T06:22:35;25.54;63.85
65396;HTU21D;52004;45.136;39.010;2022-07-15T06:25:01;25.61;63.88
65396;HTU21D;52004;45.136;39.010;2022-07-15T06:27:29;25.66;63.90
65396;HTU21D;52004;45.136;39.010;2022-07-15T06:29:54;25.75;63.80
65396;HTU21D;52004;45.136;39.010;2022-07-15T06:32:20;25.81;63.85
65396;HTU21D;52004;45.136;39.010;2022-07-15T06:34:46;25.92;63.89
65396;HTU21D;52004;45.136;39.010;2022-07-15T06:37:12;26.05;63.89
65396;HTU21D;52004;45.136;39.010;2022-07-15T06:39:40;26.18;63.73
65396;HTU21D;52004;45.136;39.010;2022-07-15T06:42:06;26.26;63.68
65396;HTU21D;52004;45.136;39.010;2022-07-15T06:44:32;26.37;63.65
65396;HTU21D;52004;45.136;39.010;2022-07-15T06:47:06;26.43;63.32
65396;HTU21D;52004;45.136;39.010;2022-07-15T06:49:32;26.49;63.41
65396;HTU21D;52004;45.136;39.010;2022-07-15T06:52:00;26.58;63.52
65396;HTU21D;52004;45.136;39.010;2022-07-15T06:54:26;26.71;63.47
65396;HTU21D;52004;45.136;39.010;2022-07-15T06:56:52;26.83;63.28
65396;HTU21D;52004;45.136;39.010;2022-07-15T06:59:18;26.91;63.16
65396;HTU21D;52004;45.136;39.010;2022-07-15T07:01:45;0.00;62.95
65396;HTU21D;52004;45.136;39.010;2022-07-15T07:04:11;27.04;63.00
65396;HTU21D;52004;45.136;39.010;2022-07-15T07:06:37;27.08;62.92
65396;HTU21D;52004;45.136;39.010;2022-07-15T07:09:03;27.15;62.85
65396;HTU21D;52004;45.136;39.010;2022-07-15T07:11:29;27.19;62.62
65396;HTU21D;52004;45.136;39.010;2022-07-15T07:13:56;27.23;62.71
65396;HTU21D;52004;45.136;39.010;2022-07-15T07:16:22;27.31;62.64
65396;HTU21D;52004;45.136;39.010;2022-07-15T07:18:48;27.40;62.69
65396;HTU21D;52004;45.136;39.010;2022-07-15T07:21:16;27.54;62.75
65396;HTU21D;52004;45.136;39.010;2022-07-15T07:23:42;27.71;62.63
65396;HTU21D;52004;45.136;39.010;2022-07-15T07:26:09;27.87;62.53
65396;HTU21D;52004;45.136;39.010;2022-07-15T07:28:35;28.02;62.31
65396;HTU21D;52004;45.136;39.010;2022-07-15T07:31:02;28.14;62.08
65396;HTU21D;52004;45.136;39.010;2022-07-15T07:33:28;28.15;61.75
65396;HTU21D;52004;45.136;39.010;2022-07-15T07:35:53;28.06;61.58
65396;HTU21D;52004;45.136;39.010;2022-07-15T07:38:19;0.00;61.47
65396;HTU21D;52004;45.136;39.010;2022-07-15T07:40:45;27.83;61.38
65396;HTU21D;52004;45.136;39.010;2022-07-15T07:43:15;27.73;61.57
65396;HTU21D;52004;45.136;39.010;2022-07-15T07:45:41;27.75;61.63
65396;HTU21D;52004;45.136;39.010;2022-07-15T07:48:07;27.82;61.76
65396;HTU21D;52004;45.136;39.010;2022-07-15T07:50:33;27.97;61.71
65396;HTU21D;52004;45.136;39.010;2022-07-15T07:52:59;28.12;61.59
65396;HTU21D;52004;45.136;39.010;2022-07-15T07:55:25;28.24;61.31
65396;HTU21D;52004;45.136;39.010;2022-07-15T07:57:52;28.33;61.17
65396;HTU21D;52004;45.136;39.010;2022-07-15T08:00:18;28.44;61.05
65396;HTU21D;52004;45.136;39.010;2022-07-15T08:02:45;28.52;60.98
65396;HTU21D;52004;45.136;39.010;2022-07-15T08:05:11;28.54;60.85
65396;HTU21D;52004;45.136;39.010;2022-07-15T08:07:37;28.61;60.92
65396;HTU21D;52004;45.136;39.010;2022-07-15T08:10:03;28.72;60.93
65396;HTU21D;52004;45.136;39.010;2022-07-15T08:12:29;28.84;60.65
65396;HTU21D;52004;45.136;39.010;2022-07-15T08:14:55;28.87;60.54
65396;HTU21D;52004;45.136;39.010;2022-07-15T08:17:22;28.93;60.51
65396;HTU21D;52004;45.136;39.010;2022-07-15T08:19:51;29.03;60.51
65396;HTU21D;52004;45.136;39.010;2022-07-15T08:22:17;29.14;60.44
65396;HTU21D;52004;45.136;39.010;2022-07-15T08:24:43;29.23;60.22
65396;HTU21D;52004;45.136;39.010;2022-07-15T08:27:08;29.29;60.02
65396;HTU21D;52004;45.136;39.010;2022-07-15T08:29:34;29.32;59.88
65396;HTU21D;52004;45.136;39.010;2022-07-15T08:32:00;29.37;59.97
65396;HTU21D;52004;45.136;39.010;2022-07-15T08:34:26;29.45;59.90
65396;HTU21D;52004;45.136;39.010;2022-07-15T08:36:52;29.56;59.81
65396;HTU21D;52004;45.136;39.010;2022-07-15T08:39:18;29.64;59.70
65396;HTU21D;52004;45.136;39.010;2022-07-15T08:45:51;29.77;59.19
65396;HTU21D;52004;45.136;39.010;2022-07-15T08:48:18;29.76;58.98
65396;HTU21D;52004;45.136;39.010;2022-07-15T08:50:44;29.77;58.92
65396;HTU21D;52004;45.136;39.010;2022-07-15T08:53:10;29.80;58.80
65396;HTU21D;52004;45.136;39.010;2022-07-15T08:55:36;29.81;58.70
65396;HTU21D;52004;45.136;39.010;2022-07-15T08:58:02;29.82;58.58
65396;HTU21D;52004;45.136;39.010;2022-07-15T09:00:28;29.82;58.71
65396;HTU21D;52004;45.136;39.010;2022-07-15T09:02:58;29.91;58.79
65396;HTU21D;52004;45.136;39.010;2022-07-15T09:05:26;29.91;58.33
65396;HTU21D;52004;45.136;39.010;2022-07-15T09:11:57;0.00;58.22
65396;HTU21D;52004;45.136;39.010;2022-07-15T09:14:26;29.70;58.28
65396;HTU21D;52004;45.136;39.010;2022-07-15T09:20:16;29.85;58.44
65396;HTU21D;52004;45.136;39.010;2022-07-15T09:22:17;0.00;58.35
65396;HTU21D;52004;45.136;39.010;2022-07-15T09:24:44;29.97;58.01
65396;HTU21D;52004;45.136;39.010;2022-07-15T09:27:29;0.00;57.97
65396;HTU21D;52004;45.136;39.010;2022-07-15T09:29:55;29.94;57.95
65396;HTU21D;52004;45.136;39.010;2022-07-15T09:32:41;29.83;57.59
65396;HTU21D;52004;45.136;39.010;2022-07-15T09:35:27;29.71;57.80
65396;HTU21D;52004;45.136;39.010;2022-07-15T09:38:11;29.77;58.03
65396;HTU21D;52004;45.136;39.010;2022-07-15T09:40:47;29.91;57.93
65396;HTU21D;52004;45.136;39.010;2022-07-15T09:43:13;30.06;57.91
65396;HTU21D;52004;45.136;39.010;2022-07-15T09:45:39;30.22;57.78
65396;HTU21D;52004;45.136;39.010;2022-07-15T09:48:09;30.35;57.66
65396;HTU21D;52004;45.136;39.010;2022-07-15T09:50:36;30.49;57.58
65396;HTU21D;52004;45.136;39.010;2022-07-15T09:53:03;30.61;57.45
65396;HTU21D;52004;45.136;39.010;2022-07-15T09:55:29;30.69;57.35
65396;HTU21D;52004;45.136;39.010;2022-07-15T09:57:56;30.82;57.34
65396;HTU21D;52004;45.136;39.010;2022-07-15T10:00:24;30.94;57.21
65396;HTU21D;52004;45.136;39.010;2022-07-15T10:02:51;31.04;57.03
65396;HTU21D;52004;45.136;39.010;2022-07-15T10:05:17;31.06;56.85
65396;HTU21D;52004;45.136;39.010;2022-07-15T10:07:43;30.99;56.79
65396;HTU21D;52004;45.136;39.010;2022-07-15T10:10:09;31.00;56.87
65396;HTU21D;52004;45.136;39.010;2022-07-15T10:15:40;31.13;56.82
65396;HTU21D;52004;45.136;39.010;2022-07-15T10:18:22;31.23;56.77
65396;HTU21D;52004;45.136;39.010;2022-07-15T10:21:00;31.29;56.51
65396;HTU21D;52004;45.136;39.010;2022-07-15T10:26:06;31.26;56.19
65396;HTU21D;52004;45.136;39.010;2022-07-15T10:31:32;31.10;56.28
65396;HTU21D;52004;45.136;39.010;2022-07-15T10:36:39;31.16;56.16
65396;HTU21D;52004;45.136;39.010;2022-07-15T10:39:05;31.19;55.92
65396;HTU21D;52004;45.136;39.010;2022-07-15T10:44:16;31.12;55.87
65396;HTU21D;52004;45.136;39.010;2022-07-15T10:46:42;31.16;55.67
65396;HTU21D;52004;45.136;39.010;2022-07-15T10:56:55;31.20;55.46
65396;HTU21D;52004;45.136;39.010;2022-07-15T10:59:23;31.27;55.44
65396;HTU21D;52004;45.136;39.010;2022-07-15T11:01:50;31.39;55.42
65396;HTU21D;52004;45.136;39.010;2022-07-15T11:04:35;31.48;55.15
65396;HTU21D;52004;45.136;39.010;2022-07-15T11:12:16;31.53;54.84
65396;HTU21D;52004;45.136;39.010;2022-07-15T11:14:44;31.55;54.68
65396;HTU21D;52004;45.136;39.010;2022-07-15T11:17:11;31.51;54.45
65396;HTU21D;52004;45.136;39.010;2022-07-15T11:19:38;31.46;54.49
65396;HTU21D;52004;45.136;39.010;2022-07-15T11:22:07;31.44;54.49
65396;HTU21D;52004;45.136;39.010;2022-07-15T11:24:36;31.44;54.53
65396;HTU21D;52004;45.136;39.010;2022-07-15T11:27:02;31.49;54.53
65396;HTU21D;52004;45.136;39.010;2022-07-15T11:32:31;31.52;54.30
65396;HTU21D;52004;45.136;39.010;2022-07-15T11:34:58;31.50;54.19
65396;HTU21D;52004;45.136;39.010;2022-07-15T11:40:03;31.44;53.97
65396;HTU21D;52004;45.136;39.010;2022-07-15T11:42:30;31.38;53.82
65396;HTU21D;52004;45.136;39.010;2022-07-15T11:45:16;31.33;53.94
65396;HTU21D;52004;45.136;39.010;2022-07-15T11:47:56;31.37;53.89
65396;HTU21D;52004;45.136;39.010;2022-07-15T11:50:22;31.37;53.86
65396;HTU21D;52004;45.136;39.010;2022-07-15T11:52:48;31.40;53.81
65396;HTU21D;52004;45.136;39.010;2022-07-15T11:55:16;31.45;53.88
65396;HTU21D;52004;45.136;39.010;2022-07-15T11:57:46;31.50;53.68
65396;HTU21D;52004;45.136;39.010;2022-07-15T12:00:17;31.51;53.66
65396;HTU21D;52004;45.136;39.010;2022-07-15T12:02:45;31.50;53.45
65396;HTU21D;52004;45.136;39.010;2022-07-15T12:05:11;31.45;53.46
65396;HTU21D;52004;45.136;39.010;2022-07-15T12:07:38;31.40;53.23
65396;HTU21D;52004;45.136;39.010;2022-07-15T12:10:05;0.00;53.29
65396;HTU21D;52004;45.136;39.010;2022-07-15T12:12:31;31.35;53.05
65396;HTU21D;52004;45.136;39.010;2022-07-15T12:14:57;31.30;53.07
65396;HTU21D;52004;45.136;39.010;2022-07-15T12:17:23;31.30;53.10
65396;HTU21D;52004;45.136;39.010;2022-07-15T12:19:50;31.29;52.96
65396;HTU21D;52004;45.136;39.010;2022-07-15T12:22:16;31.34;52.98
65396;HTU21D;52004;45.136;39.010;2022-07-15T12:24:46;31.34;52.82
65396;HTU21D;52004;45.136;39.010;2022-07-15T12:27:16;31.31;52.75
65396;HTU21D;52004;45.136;39.010;2022-07-15T14:03:54;31.20;52.38
65396;HTU21D;52004;45.136;39.010;2022-07-15T14:06:22;31.18;52.39
65396;HTU21D;52004;45.136;39.010;2022-07-15T14:08:48;31.18;52.42
65396;HTU21D;52004;45.136;39.010;2022-07-15T14:11:15;31.18;52.43
65396;HTU21D;52004;45.136;39.010;2022-07-15T14:13:41;31.21;52.46
65396;HTU21D;52004;45.136;39.010;2022-07-15T14:16:07;31.24;52.46
65396;HTU21D;52004;45.136;39.010;2022-07-15T14:18:33;31.25;52.43
65396;HTU21D;52004;45.136;39.010;2022-07-15T14:21:16;31.23;52.39
65396;HTU21D;52004;45.136;39.010;2022-07-15T14:23:42;31.19;52.28
65396;HTU21D;52004;45.136;39.010;2022-07-15T14:26:09;31.14;52.35
65396;HTU21D;52004;45.136;39.010;2022-07-15T14:28:35;31.13;52.39
65396;HTU21D;52004;45.136;39.010;2022-07-15T14:31:02;31.11;52.40
65396;HTU21D;52004;45.136;39.010;2022-07-15T14:33:27;31.07;52.33
65396;HTU21D;52004;45.136;39.010;2022-07-15T14:35:53;31.05;52.40
65396;HTU21D;52004;45.136;39.010;2022-07-15T14:38:19;31.00;52.38
65396;HTU21D;52004;45.136;39.010;2022-07-15T14:40:45;30.97;52.40
65396;HTU21D;52004;45.136;39.010;2022-07-15T14:43:11;30.97;52.45
65396;HTU21D;52004;45.136;39.010;2022-07-15T14:45:38;30.97;52.41
65396;HTU21D;52004;45.136;39.010;2022-07-15T14:48:04;30.97;52.46
65396;HTU21D;52004;45.136;39.010;2022-07-15T14:50:30;30.98;52.43
65396;HTU21D;52004;45.136;39.010;2022-07-15T14:52:59;30.96;52.41
65396;HTU21D;52004;45.136;39.010;2022-07-15T14:55:25;30.94;52.42
65396;HTU21D;52004;45.136;39.010;2022-07-15T14:57:51;30.91;52.44
65396;HTU21D;52004;45.136;39.010;2022-07-15T15:00:17;30.89;52.43
65396;HTU21D;52004;45.136;39.010;2022-07-15T15:02:43;30.87;52.46
65396;HTU21D;52004;45.136;39.010;2022-07-15T15:05:09;30.84;52.40
65396;HTU21D;52004;45.136;39.010;2022-07-15T15:07:35;30.80;52.35
65396;HTU21D;52004;45.136;39.010;2022-07-15T15:10:01;30.74;52.30
65396;HTU21D;52004;45.136;39.010;2022-07-15T15:12:27;30.65;52.33
65396;HTU21D;52004;45.136;39.010;2022-07-15T15:14:53;30.54;52.35
65396;HTU21D;52004;45.136;39.010;2022-07-15T15:17:24;30.44;52.43
65396;HTU21D;52004;45.136;39.010;2022-07-15T15:20:55;30.31;52.48
65396;HTU21D;52004;45.136;39.010;2022-07-15T15:23:21;30.19;52.56
65396;HTU21D;52004;45.136;39.010;2022-07-15T15:25:47;30.09;52.60
65396;HTU21D;52004;45.136;39.010;2022-07-15T15:28:31;29.96;52.72
65396;HTU21D;52004;45.136;39.010;2022-07-15T15:30:57;29.89;52.78
65396;HTU21D;52004;45.136;39.010;2022-07-15T15:33:23;29.83;52.78
65396;HTU21D;52004;45.136;39.010;2022-07-15T15:35:48;29.75;52.81
65396;HTU21D;52004;45.136;39.010;2022-07-15T15:38:14;29.70;52.83
65396;HTU21D;52004;45.136;39.010;2022-07-15T15:40:40;29.63;52.84
65396;HTU21D;52004;45.136;39.010;2022-07-15T15:43:07;29.58;52.87
65396;HTU21D;52004;45.136;39.010;2022-07-15T15:45:33;29.49;52.90
65396;HTU21D;52004;45.136;39.010;2022-07-15T15:47:59;29.42;52.94
65396;HTU21D;52004;45.136;39.010;2022-07-15T15:50:25;29.34;53.01
65396;HTU21D;52004;45.136;39.010;2022-07-15T15:52:51;29.27;53.04
65396;HTU21D;52004;45.136;39.010;2022-07-15T15:55:17;29.21;53.06
65396;HTU21D;52004;45.136;39.010;2022-07-15T15:57:43;29.14;53.10
65396;HTU21D;52004;45.136;39.010;2022-07-15T16:00:10;29.06;53.14
65396;HTU21D;52004;45.136;39.010;2022-07-15T16:02:39;28.99;53.18
65396;HTU21D;52004;45.136;39.010;2022-07-15T16:05:05;28.93;53.21
65396;HTU21D;52004;45.136;39.010;2022-07-15T16:07:32;28.87;53.26
65396;HTU21D;52004;45.136;39.010;2022-07-15T16:09:58;28.79;53.30
65396;HTU21D;52004;45.136;39.010;2022-07-15T16:12:24;28.76;53.33
65396;HTU21D;52004;45.136;39.010;2022-07-15T16:14:50;28.70;53.36
65396;HTU21D;52004;45.136;39.010;2022-07-15T16:17:16;28.67;53.37
65396;HTU21D;52004;45.136;39.010;2022-07-15T16:19:42;28.61;53.36
65396;HTU21D;52004;45.136;39.010;2022-07-15T16:22:08;0.00;53.41
65396;HTU21D;52004;45.136;39.010;2022-07-15T16:24:52;28.54;53.43
65396;HTU21D;52004;45.136;39.010;2022-07-15T16:27:18;28.46;53.46
65396;HTU21D;52004;45.136;39.010;2022-07-15T16:29:44;28.43;53.50
65396;HTU21D;52004;45.136;39.010;2022-07-15T16:32:10;28.35;53.53
65396;HTU21D;52004;45.136;39.010;2022-07-15T16:34:36;28.31;53.57
65396;HTU21D;52004;45.136;39.010;2022-07-15T16:37:02;28.25;53.61
65396;HTU21D;52004;45.136;39.010;2022-07-15T16:39:29;28.18;53.67
65396;HTU21D;52004;45.136;39.010;2022-07-15T16:41:55;28.13;53.72
65396;HTU21D;52004;45.136;39.010;2022-07-15T16:44:21;28.06;53.78
65396;HTU21D;52004;45.136;39.010;2022-07-15T16:46:47;28.00;53.84
65396;HTU21D;52004;45.136;39.010;2022-07-15T16:49:12;27.96;53.88
65396;HTU21D;52004;45.136;39.010;2022-07-15T16:51:38;27.91;53.91
65396;HTU21D;52004;45.136;39.010;2022-07-15T16:54:04;27.89;53.94
65396;HTU21D;52004;45.136;39.010;2022-07-15T16:56:30;27.86;53.96
65396;HTU21D;52004;45.136;39.010;2022-07-15T16:58:56;27.83;53.98
65396;HTU21D;52004;45.136;39.010;2022-07-15T17:01:22;27.80;54.00
65396;HTU21D;52004;45.136;39.010;2022-07-15T17:03:48;27.74;54.02
65396;HTU21D;52004;45.136;39.010;2022-07-15T17:06:14;27.72;54.07
65396;HTU21D;52004;45.136;39.010;2022-07-15T17:08:40;27.69;54.10
65396;HTU21D;52004;45.136;39.010;2022-07-15T17:11:06;27.67;54.13
65396;HTU21D;52004;45.136;39.010;2022-07-15T17:13:32;27.64;54.13
65396;HTU21D;52004;45.136;39.010;2022-07-15T17:15:58;27.60;54.16
65396;HTU21D;52004;45.136;39.010;2022-07-15T17:18:24;27.58;54.17
65396;HTU21D;52004;45.136;39.010;2022-07-15T17:20:51;27.55;54.21
65396;HTU21D;52004;45.136;39.010;2022-07-15T17:23:17;27.51;54.24